sensor_id;sensor_type;location;lat;lon;timestamp;temperature;humidity
61916;DHT22;47868;51.326;6.550;2023-02-04T00:00:59;9.00;99.90
61916;DHT22;47868;51.326;6.550;2023-02-04T00:03:25;9.00;99.90
61916;DHT22;47868;51.326;6.550;2023-02-04T00:05:50;9.00;99.90
61916;DHT22;47868;51.326;6.550;2023-02-04T00:08:16;8.90;99.90
61916;DHT22;47868;51.326;6.550;2023-02-04T00:10:41;8.90;99.90
61916;DHT22;47868;51.326;6.550;2023-02-04T00:13:07;8.90;99.90
61916;DHT22;47868;51.326;6.550;2023-02-04T00:15:32;8.90;99.90
61916;DHT22;47868;51.326;6.550;2023-02-04T00:17:58;8.90;99.90
61916;DHT22;47868;51.326;6.550;2023-02-04T00:20:24;8.90;99.90
61916;DHT22;47868;51.326;6.550;2023-02-04T00:22:49;8.90;99.90
61916;DHT22;47868;51.326;6.550;2023-02-04T00:25:16;8.80;99.90
61916;DHT22;47868;51.326;6.550;2023-02-04T00:27:42;8.80;99.90
61916;DHT22;47868;51.326;6.550;2023-02-04T00:30:08;8.80;99.90
61916;DHT22;47868;51.326;6.550;2023-02-04T00:32:34;8.70;99.90
61916;DHT22;47868;51.326;6.550;2023-02-04T00:34:59;8.80;99.90
61916;DHT22;47868;51.326;6.550;2023-02-04T00:37:29;8.80;99.90
61916;DHT22;47868;51.326;6.550;2023-02-04T00:39:55;8.80;99.90
61916;DHT22;47868;51.326;6.550;2023-02-04T00:42:20;8.80;99.90
61916;DHT22;47868;51.326;6.550;2023-02-04T00:44:46;8.80;99.90
61916;DHT22;47868;51.326;6.550;2023-02-04T00:47:12;8.80;99.90
61916;DHT22;47868;51.326;6.550;2023-02-04T00:49:37;8.70;99.90
61916;DHT22;47868;51.326;6.550;2023-02-04T00:52:03;8.70;99.90
61916;DHT22;47868;51.326;6.550;2023-02-04T00:54:29;8.70;99.90
61916;DHT22;47868;51.326;6.550;2023-02-04T00:56:55;8.70;99.90
61916;DHT22;47868;51.326;6.550;2023-02-04T00:59:20;8.70;99.90
61916;DHT22;47868;51.326;6.550;2023-02-04T01:01:46;8.70;99.90
61916;DHT22;47868;51.326;6.550;2023-02-04T01:04:11;8.70;99.90
61916;DHT22;47868;51.326;6.550;2023-02-04T01:06:37;8.70;99.90
61916;DHT22;47868;51.326;6.550;2023-02-04T01:09:03;8.60;99.90
61916;DHT22;47868;51.326;6.550;2023-02-04T01:11:29;8.60;99.90
61916;DHT22;47868;51.326;6.550;2023-02-04T01:13:55;8.60;99.90
61916;DHT22;47868;51.326;6.550;2023-02-04T01:16:21;8.60;99.90
61916;DHT22;47868;51.326;6.550;2023-02-04T01:18:47;8.60;99.90
61916;DHT22;47868;51.326;6.550;2023-02-04T01:21:13;8.70;99.90
61916;DHT22;47868;51.326;6.550;2023-02-04T01:23:38;8.60;99.90
61916;DHT22;47868;51.326;6.550;2023-02-04T01:26:04;8.60;99.90
61916;DHT22;47868;51.326;6.550;2023-02-04T01:28:30;8.60;99.90
61916;DHT22;47868;51.326;6.550;2023-02-04T01:30:55;8.60;99.90
61916;DHT22;47868;51.326;6.550;2023-02-04T01:33:21;8.60;99.90
61916;DHT22;47868;51.326;6.550;2023-02-04T01:35:47;8.60;99.90
61916;DHT22;47868;51.326;6.550;2023-02-04T01:38:12;8.60;99.90
61916;DHT22;47868;51.326;6.550;2023-02-04T01:40:38;8.60;99.90
61916;DHT22;47868;51.326;6.550;2023-02-04T01:43:05;8.50;99.90
61916;DHT22;47868;51.326;6.550;2023-02-04T01:45:31;8.60;99.90
61916;DHT22;47868;51.326;6.550;2023-02-04T01:48:02;8.60;99.90
61916;DHT22;47868;51.326;6.550;2023-02-04T01:50:28;8.60;99.90
61916;DHT22;47868;51.326;6.550;2023-02-04T01:52:54;8.60;99.90
61916;DHT22;47868;51.326;6.550;2023-02-04T01:55:25;8.60;99.90
61916;DHT22;47868;51.326;6.550;2023-02-04T01:57:51;8.60;99.90
61916;DHT22;47868;51.326;6.550;2023-02-04T02:00:26;8.50;99.90
61916;DHT22;47868;51.326;6.550;2023-02-04T02:02:52;8.60;99.90
61916;DHT22;47868;51.326;6.550;2023-02-04T02:05:22;8.50;99.90
61916;DHT22;47868;51.326;6.550;2023-02-04T02:07:50;8.50;99.90
61916;DHT22;47868;51.326;6.550;2023-02-04T02:10:17;8.50;99.90
61916;DHT22;47868;51.326;6.550;2023-02-04T02:12:44;8.60;99.90
61916;DHT22;47868;51.326;6.550;2023-02-04T02:15:12;8.60;99.90
61916;DHT22;47868;51.326;6.550;2023-02-04T02:17:38;8.60;99.90
61916;DHT22;47868;51.326;6.550;2023-02-04T02:22:56;8.50;99.90
61916;DHT22;47868;51.326;6.550;2023-02-04T02:25:23;8.50;99.90
61916;DHT22;47868;51.326;6.550;2023-02-04T02:27:49;8.40;99.90
61916;DHT22;47868;51.326;6.550;2023-02-04T02:30:15;8.50;99.90
61916;DHT22;47868;51.326;6.550;2023-02-04T02:32:43;8.40;99.90
61916;DHT22;47868;51.326;6.550;2023-02-04T02:35:09;8.40;99.90
61916;DHT22;47868;51.326;6.550;2023-02-04T02:37:35;8.40;99.90
61916;DHT22;47868;51.326;6.550;2023-02-04T02:40:01;8.40;99.90
61916;DHT22;47868;51.326;6.550;2023-02-04T02:42:27;8.40;99.90
61916;DHT22;47868;51.326;6.550;2023-02-04T02:44:53;8.40;99.90
61916;DHT22;47868;51.326;6.550;2023-02-04T02:47:21;8.40;99.90
61916;DHT22;47868;51.326;6.550;2023-02-04T02:49:49;8.40;99.90
61916;DHT22;47868;51.326;6.550;2023-02-04T02:52:15;8.40;99.90
61916;DHT22;47868;51.326;6.550;2023-02-04T02:54:41;8.40;99.90
61916;DHT22;47868;51.326;6.550;2023-02-04T02:57:20;8.30;99.90
61916;DHT22;47868;51.326;6.550;2023-02-04T02:59:47;8.30;99.90
61916;DHT22;47868;51.326;6.550;2023-02-04T03:02:17;8.30;99.90
61916;DHT22;47868;51.326;6.550;2023-02-04T03:04:47;8.20;99.90
61916;DHT22;47868;51.326;6.550;2023-02-04T03:07:15;8.20;99.90
61916;DHT22;47868;51.326;6.550;2023-02-04T03:09:42;8.20;99.90
61916;DHT22;47868;51.326;6.550;2023-02-04T03:12:08;8.20;99.90
61916;DHT22;47868;51.326;6.550;2023-02-04T03:14:34;8.20;99.90
61916;DHT22;47868;51.326;6.550;2023-02-04T03:17:04;8.20;99.90
61916;DHT22;47868;51.326;6.550;2023-02-04T03:19:30;8.20;99.90
61916;DHT22;47868;51.326;6.550;2023-02-04T03:21:57;8.20;99.90
61916;DHT22;47868;51.326;6.550;2023-02-04T03:24:23;8.10;99.90
61916;DHT22;47868;51.326;6.550;2023-02-04T03:26:49;8.20;99.90
61916;DHT22;47868;51.326;6.550;2023-02-04T03:29:15;8.20;99.90
61916;DHT22;47868;51.326;6.550;2023-02-04T03:31:41;8.20;99.90
61916;DHT22;47868;51.326;6.550;2023-02-04T03:34:06;8.20;99.90
61916;DHT22;47868;51.326;6.550;2023-02-04T03:36:32;8.10;99.90
61916;DHT22;47868;51.326;6.550;2023-02-04T03:38:58;8.00;99.90
61916;DHT22;47868;51.326;6.550;2023-02-04T03:41:25;8.00;99.90
61916;DHT22;47868;51.326;6.550;2023-02-04T03:43:50;8.00;99.90
61916;DHT22;47868;51.326;6.550;2023-02-04T03:46:16;7.90;99.90
61916;DHT22;47868;51.326;6.550;2023-02-04T03:48:41;7.90;99.90
61916;DHT22;47868;51.326;6.550;2023-02-04T03:51:07;8.00;99.90
61916;DHT22;47868;51.326;6.550;2023-02-04T03:53:33;7.90;99.90
61916;DHT22;47868;51.326;6.550;2023-02-04T03:55:58;7.90;99.90
61916;DHT22;47868;51.326;6.550;2023-02-04T03:58:24;7.90;99.90
61916;DHT22;47868;51.326;6.550;2023-02-04T04:00:49;7.90;99.90
61916;DHT22;47868;51.326;6.550;2023-02-04T04:03:15;7.90;99.90
61916;DHT22;47868;51.326;6.550;2023-02-04T04:05:41;7.90;99.90
61916;DHT22;47868;51.326;6.550;2023-02-04T04:08:06;7.90;99.90
61916;DHT22;47868;51.326;6.550;2023-02-04T04:10:32;7.80;99.90
61916;DHT22;47868;51.326;6.550;2023-02-04T04:12:57;7.80;99.90
61916;DHT22;47868;51.326;6.550;2023-02-04T04:15:24;7.70;99.90
61916;DHT22;47868;51.326;6.550;2023-02-04T04:17:50;7.70;99.90
61916;DHT22;47868;51.326;6.550;2023-02-04T04:20:15;7.60;99.90
61916;DHT22;47868;51.326;6.550;2023-02-04T04:22:41;7.60;99.90
61916;DHT22;47868;51.326;6.550;2023-02-04T04:25:07;7.60;99.90
61916;DHT22;47868;51.326;6.550;2023-02-04T04:27:33;7.60;99.90
61916;DHT22;47868;51.326;6.550;2023-02-04T04:29:59;7.60;99.90
61916;DHT22;47868;51.326;6.550;2023-02-04T04:32:24;7.60;99.90
61916;DHT22;47868;51.326;6.550;2023-02-04T04:34:50;7.60;99.90
61916;DHT22;47868;51.326;6.550;2023-02-04T04:37:15;7.60;99.90
61916;DHT22;47868;51.326;6.550;2023-02-04T04:39:41;7.60;99.90
61916;DHT22;47868;51.326;6.550;2023-02-04T04:42:06;7.50;99.90
61916;DHT22;47868;51.326;6.550;2023-02-04T04:44:32;7.50;99.90
61916;DHT22;47868;51.326;6.550;2023-02-04T04:46:58;7.50;99.90
61916;DHT22;47868;51.326;6.550;2023-02-04T04:49:23;7.50;99.90
61916;DHT22;47868;51.326;6.550;2023-02-04T04:51:49;7.50;99.90
61916;DHT22;47868;51.326;6.550;2023-02-04T04:54:14;7.60;99.90
61916;DHT22;47868;51.326;6.550;2023-02-04T04:56:40;7.50;99.90
61916;DHT22;47868;51.326;6.550;2023-02-04T04:59:05;7.60;99.90
61916;DHT22;47868;51.326;6.550;2023-02-04T05:01:31;7.60;99.90
61916;DHT22;47868;51.326;6.550;2023-02-04T05:03:57;7.50;99.90
61916;DHT22;47868;51.326;6.550;2023-02-04T05:06:24;7.50;99.90
61916;DHT22;47868;51.326;6.550;2023-02-04T05:08:53;7.50;99.90
61916;DHT22;47868;51.326;6.550;2023-02-04T05:11:19;7.50;99.90
61916;DHT22;47868;51.326;6.550;2023-02-04T05:13:45;7.50;99.90
61916;DHT22;47868;51.326;6.550;2023-02-04T05:16:11;7.40;99.90
61916;DHT22;47868;51.326;6.550;2023-02-04T05:18:37;7.50;99.90
61916;DHT22;47868;51.326;6.550;2023-02-04T05:21:03;7.40;99.90
61916;DHT22;47868;51.326;6.550;2023-02-04T05:23:29;7.40;99.90
61916;DHT22;47868;51.326;6.550;2023-02-04T05:25:55;7.40;99.90
61916;DHT22;47868;51.326;6.550;2023-02-04T05:28:21;7.50;99.90
61916;DHT22;47868;51.326;6.550;2023-02-04T05:30:46;7.50;99.90
61916;DHT22;47868;51.326;6.550;2023-02-04T05:33:12;7.40;99.90
61916;DHT22;47868;51.326;6.550;2023-02-04T05:35:37;7.50;99.90
61916;DHT22;47868;51.326;6.550;2023-02-04T05:38:03;7.40;99.90
61916;DHT22;47868;51.326;6.550;2023-02-04T05:40:28;7.50;99.90
61916;DHT22;47868;51.326;6.550;2023-02-04T05:42:54;7.50;99.90
61916;DHT22;47868;51.326;6.550;2023-02-04T05:45:20;7.40;99.90
61916;DHT22;47868;51.326;6.550;2023-02-04T05:47:46;7.50;99.90
61916;DHT22;47868;51.326;6.550;2023-02-04T05:50:12;7.50;99.90
61916;DHT22;47868;51.326;6.550;2023-02-04T05:52:38;7.50;99.90
61916;DHT22;47868;51.326;6.550;2023-02-04T05:55:04;7.50;99.90
61916;DHT22;47868;51.326;6.550;2023-02-04T05:57:30;7.50;99.90
61916;DHT22;47868;51.326;6.550;2023-02-04T05:59:56;7.40;99.90
61916;DHT22;47868;51.326;6.550;2023-02-04T06:02:21;7.50;99.90
61916;DHT22;47868;51.326;6.550;2023-02-04T06:04:47;7.40;99.90
61916;DHT22;47868;51.326;6.550;2023-02-04T06:07:12;7.40;99.90
61916;DHT22;47868;51.326;6.550;2023-02-04T06:09:38;7.40;99.90
61916;DHT22;47868;51.326;6.550;2023-02-04T06:12:04;7.40;99.90
61916;DHT22;47868;51.326;6.550;2023-02-04T06:14:29;7.50;99.90
61916;DHT22;47868;51.326;6.550;2023-02-04T06:16:55;7.50;99.90
61916;DHT22;47868;51.326;6.550;2023-02-04T06:19:20;7.50;99.90
61916;DHT22;47868;51.326;6.550;2023-02-04T06:21:46;7.50;99.90
61916;DHT22;47868;51.326;6.550;2023-02-04T06:24:12;7.50;99.90
61916;DHT22;47868;51.326;6.550;2023-02-04T06:26:38;7.60;99.90
61916;DHT22;47868;51.326;6.550;2023-02-04T06:29:03;7.50;99.90
61916;DHT22;47868;51.326;6.550;2023-02-04T06:31:29;7.50;99.90
61916;DHT22;47868;51.326;6.550;2023-02-04T06:33:55;7.40;99.90
61916;DHT22;47868;51.326;6.550;2023-02-04T06:36:20;7.40;99.90
61916;DHT22;47868;51.326;6.550;2023-02-04T06:38:46;7.40;99.90
61916;DHT22;47868;51.326;6.550;2023-02-04T06:41:11;7.40;99.90
61916;DHT22;47868;51.326;6.550;2023-02-04T06:43:37;7.30;99.90
61916;DHT22;47868;51.326;6.550;2023-02-04T06:46:03;7.30;99.90
61916;DHT22;47868;51.326;6.550;2023-02-04T06:48:28;7.30;99.90
61916;DHT22;47868;51.326;6.550;2023-02-04T06:50:54;7.30;99.90
61916;DHT22;47868;51.326;6.550;2023-02-04T06:53:19;7.30;99.90
61916;DHT22;47868;51.326;6.550;2023-02-04T06:55:45;7.30;99.90
61916;DHT22;47868;51.326;6.550;2023-02-04T06:58:10;7.30;99.90
61916;DHT22;47868;51.326;6.550;2023-02-04T07:00:36;7.20;99.90
61916;DHT22;47868;51.326;6.550;2023-02-04T07:03:01;7.30;99.90
61916;DHT22;47868;51.326;6.550;2023-02-04T07:05:27;7.40;99.90
61916;DHT22;47868;51.326;6.550;2023-02-04T07:07:53;7.40;99.90
61916;DHT22;47868;51.326;6.550;2023-02-04T07:10:18;7.30;99.90
61916;DHT22;47868;51.326;6.550;2023-02-04T07:12:47;7.30;99.90
61916;DHT22;47868;51.326;6.550;2023-02-04T07:15:13;7.40;99.90
61916;DHT22;47868;51.326;6.550;2023-02-04T07:17:38;7.40;99.90
61916;DHT22;47868;51.326;6.550;2023-02-04T07:20:04;7.40;99.90
61916;DHT22;47868;51.326;6.550;2023-02-04T07:22:30;7.50;99.90
61916;DHT22;47868;51.326;6.550;2023-02-04T07:24:55;7.50;99.90
61916;DHT22;47868;51.326;6.550;2023-02-04T07:27:21;7.50;99.90
61916;DHT22;47868;51.326;6.550;2023-02-04T07:29:47;7.50;99.90
61916;DHT22;47868;51.326;6.550;2023-02-04T07:32:12;7.50;99.90
61916;DHT22;47868;51.326;6.550;2023-02-04T07:34:38;7.50;99.90
61916;DHT22;47868;51.326;6.550;2023-02-04T07:37:03;7.50;99.90
61916;DHT22;47868;51.326;6.550;2023-02-04T07:39:29;7.40;99.90
61916;DHT22;47868;51.326;6.550;2023-02-04T07:41:55;7.50;99.90
61916;DHT22;47868;51.326;6.550;2023-02-04T07:44:20;7.40;99.90
61916;DHT22;47868;51.326;6.550;2023-02-04T07:46:46;7.40;99.90
61916;DHT22;47868;51.326;6.550;2023-02-04T07:49:11;7.50;99.90
61916;DHT22;47868;51.326;6.550;2023-02-04T07:51:37;7.40;99.90
61916;DHT22;47868;51.326;6.550;2023-02-04T07:54:02;7.50;99.90
61916;DHT22;47868;51.326;6.550;2023-02-04T07:56:28;7.60;99.90
61916;DHT22;47868;51.326;6.550;2023-02-04T07:58:54;7.60;99.90
61916;DHT22;47868;51.326;6.550;2023-02-04T08:01:19;7.60;99.90
61916;DHT22;47868;51.326;6.550;2023-02-04T08:03:45;7.60;99.90
61916;DHT22;47868;51.326;6.550;2023-02-04T08:06:11;7.70;99.90
61916;DHT22;47868;51.326;6.550;2023-02-04T08:08:37;7.70;99.90
61916;DHT22;47868;51.326;6.550;2023-02-04T08:11:02;7.80;99.90
61916;DHT22;47868;51.326;6.550;2023-02-04T08:13:28;7.80;99.90
61916;DHT22;47868;51.326;6.550;2023-02-04T08:15:54;7.80;99.90
61916;DHT22;47868;51.326;6.550;2023-02-04T08:18:19;7.80;99.90
61916;DHT22;47868;51.326;6.550;2023-02-04T08:20:45;7.00;99.90
61916;DHT22;47868;51.326;6.550;2023-02-04T08:23:10;7.80;99.90
61916;DHT22;47868;51.326;6.550;2023-02-04T08:25:36;7.80;99.90
61916;DHT22;47868;51.326;6.550;2023-02-04T08:28:02;7.80;99.90
61916;DHT22;47868;51.326;6.550;2023-02-04T08:30:27;7.80;99.90
61916;DHT22;47868;51.326;6.550;2023-02-04T08:32:53;7.90;99.90
61916;DHT22;47868;51.326;6.550;2023-02-04T08:35:18;8.00;99.90
61916;DHT22;47868;51.326;6.550;2023-02-04T08:37:44;8.00;99.90
61916;DHT22;47868;51.326;6.550;2023-02-04T08:40:10;8.10;99.90
61916;DHT22;47868;51.326;6.550;2023-02-04T08:42:36;8.10;99.90
61916;DHT22;47868;51.326;6.550;2023-02-04T08:45:01;8.10;99.90
61916;DHT22;47868;51.326;6.550;2023-02-04T08:47:28;8.20;99.90
61916;DHT22;47868;51.326;6.550;2023-02-04T08:49:54;8.30;99.90
61916;DHT22;47868;51.326;6.550;2023-02-04T08:52:19;8.30;99.90
61916;DHT22;47868;51.326;6.550;2023-02-04T08:54:45;8.30;99.90
61916;DHT22;47868;51.326;6.550;2023-02-04T08:57:10;8.20;99.90
61916;DHT22;47868;51.326;6.550;2023-02-04T08:59:36;8.20;99.90
61916;DHT22;47868;51.326;6.550;2023-02-04T09:02:02;8.20;99.90
61916;DHT22;47868;51.326;6.550;2023-02-04T09:04:27;8.20;99.90
61916;DHT22;47868;51.326;6.550;2023-02-04T09:06:53;8.30;99.90
61916;DHT22;47868;51.326;6.550;2023-02-04T09:09:19;8.30;99.90
61916;DHT22;47868;51.326;6.550;2023-02-04T09:11:45;8.30;99.90
61916;DHT22;47868;51.326;6.550;2023-02-04T09:14:11;8.30;99.90
61916;DHT22;47868;51.326;6.550;2023-02-04T09:16:37;8.30;99.90
61916;DHT22;47868;51.326;6.550;2023-02-04T09:19:02;8.40;99.90
61916;DHT22;47868;51.326;6.550;2023-02-04T09:21:29;8.40;99.90
61916;DHT22;47868;51.326;6.550;2023-02-04T09:23:55;8.50;99.90
61916;DHT22;47868;51.326;6.550;2023-02-04T09:26:21;8.60;99.90
61916;DHT22;47868;51.326;6.550;2023-02-04T09:28:47;8.70;99.90
61916;DHT22;47868;51.326;6.550;2023-02-04T09:31:13;8.60;99.90
61916;DHT22;47868;51.326;6.550;2023-02-04T09:33:39;8.70;99.90
61916;DHT22;47868;51.326;6.550;2023-02-04T09:36:05;8.70;99.90
61916;DHT22;47868;51.326;6.550;2023-02-04T09:38:30;8.70;99.90
61916;DHT22;47868;51.326;6.550;2023-02-04T09:41:02;8.70;99.90
61916;DHT22;47868;51.326;6.550;2023-02-04T09:43:35;8.70;99.90
61916;DHT22;47868;51.326;6.550;2023-02-04T09:46:03;8.80;99.90
61916;DHT22;47868;51.326;6.550;2023-02-04T09:48:29;8.80;99.90
61916;DHT22;47868;51.326;6.550;2023-02-04T09:51:06;8.80;99.90
61916;DHT22;47868;51.326;6.550;2023-02-04T09:53:34;8.80;99.90
61916;DHT22;47868;51.326;6.550;2023-02-04T09:56:00;8.80;99.90
61916;DHT22;47868;51.326;6.550;2023-02-04T09:58:30;8.80;99.90
61916;DHT22;47868;51.326;6.550;2023-02-04T10:01:00;8.80;99.90
61916;DHT22;47868;51.326;6.550;2023-02-04T10:03:30;8.90;99.90
61916;DHT22;47868;51.326;6.550;2023-02-04T10:05:55;9.10;99.90
61916;DHT22;47868;51.326;6.550;2023-02-04T10:08:29;9.20;99.90
61916;DHT22;47868;51.326;6.550;2023-02-04T10:10:55;9.40;99.90
61916;DHT22;47868;51.326;6.550;2023-02-04T10:13:31;9.50;99.90
61916;DHT22;47868;51.326;6.550;2023-02-04T10:15:58;9.60;99.90
61916;DHT22;47868;51.326;6.550;2023-02-04T10:18:31;9.60;99.90
61916;DHT22;47868;51.326;6.550;2023-02-04T10:21:17;9.60;99.90
61916;DHT22;47868;51.326;6.550;2023-02-04T10:23:46;9.60;99.90
61916;DHT22;47868;51.326;6.550;2023-02-04T10:26:13;9.60;99.90
61916;DHT22;47868;51.326;6.550;2023-02-04T10:28:39;9.70;99.90
61916;DHT22;47868;51.326;6.550;2023-02-04T10:31:05;9.70;99.90
61916;DHT22;47868;51.326;6.550;2023-02-04T10:33:34;9.70;99.90
61916;DHT22;47868;51.326;6.550;2023-02-04T10:36:03;9.70;99.90
61916;DHT22;47868;51.326;6.550;2023-02-04T10:38:29;9.60;99.90
61916;DHT22;47868;51.326;6.550;2023-02-04T10:41:03;9.60;99.90
61916;DHT22;47868;51.326;6.550;2023-02-04T10:43:29;9.70;99.90
61916;DHT22;47868;51.326;6.550;2023-02-04T10:45:57;9.70;99.90
61916;DHT22;47868;51.326;6.550;2023-02-04T10:48:24;9.60;99.90
61916;DHT22;47868;51.326;6.550;2023-02-04T10:50:49;10.10;99.90
61916;DHT22;47868;51.326;6.550;2023-02-04T10:53:18;10.20;99.90
61916;DHT22;47868;51.326;6.550;2023-02-04T10:56:04;10.30;99.90
61916;DHT22;47868;51.326;6.550;2023-02-04T10:58:31;10.50;99.90
61916;DHT22;47868;51.326;6.550;2023-02-04T11:00:56;10.60;99.90
61916;DHT22;47868;51.326;6.550;2023-02-04T11:03:27;10.70;99.90
61916;DHT22;47868;51.326;6.550;2023-02-04T11:05:56;10.70;99.90
61916;DHT22;47868;51.326;6.550;2023-02-04T11:11:19;10.60;99.90
61916;DHT22;47868;51.326;6.550;2023-02-04T11:26:37;10.80;99.90
61916;DHT22;47868;51.326;6.550;2023-02-04T11:42:05;11.40;99.90
61916;DHT22;47868;51.326;6.550;2023-02-04T11:44:36;11.30;99.90
61916;DHT22;47868;51.326;6.550;2023-02-04T11:47:06;11.30;99.90
61916;DHT22;47868;51.326;6.550;2023-02-04T11:49:35;11.20;99.90
61916;DHT22;47868;51.326;6.550;2023-02-04T11:52:13;11.10;99.90
61916;DHT22;47868;51.326;6.550;2023-02-04T11:54:39;11.00;99.90
61916;DHT22;47868;51.326;6.550;2023-02-04T11:57:05;11.10;99.90
61916;DHT22;47868;51.326;6.550;2023-02-04T11:59:31;11.30;99.90
61916;DHT22;47868;51.326;6.550;2023-02-04T12:02:16;11.50;99.90
61916;DHT22;47868;51.326;6.550;2023-02-04T12:05:07;11.50;99.90
61916;DHT22;47868;51.326;6.550;2023-02-04T12:07:33;11.60;99.90
61916;DHT22;47868;51.326;6.550;2023-02-04T12:12:49;12.10;99.90
61916;DHT22;47868;51.326;6.550;2023-02-04T12:15:33;12.50;99.90
61916;DHT22;47868;51.326;6.550;2023-02-04T12:18:07;12.70;99.90
61916;DHT22;47868;51.326;6.550;2023-02-04T12:20:37;12.70;99.90
61916;DHT22;47868;51.326;6.550;2023-02-04T12:23:06;12.70;99.90
61916;DHT22;47868;51.326;6.550;2023-02-04T12:25:33;12.60;99.90
61916;DHT22;47868;51.326;6.550;2023-02-04T12:27:58;12.50;99.90
61916;DHT22;47868;51.326;6.550;2023-02-04T12:30:25;12.30;99.90
61916;DHT22;47868;51.326;6.550;2023-02-04T12:32:51;12.20;99.90
61916;DHT22;47868;51.326;6.550;2023-02-04T12:35:17;12.00;99.90
61916;DHT22;47868;51.326;6.550;2023-02-04T12:37:43;12.10;99.90
61916;DHT22;47868;51.326;6.550;2023-02-04T12:40:14;12.20;99.90
61916;DHT22;47868;51.326;6.550;2023-02-04T12:42:40;12.20;99.90
61916;DHT22;47868;51.326;6.550;2023-02-04T12:45:06;12.50;99.90
61916;DHT22;47868;51.326;6.550;2023-02-04T12:47:31;12.10;99.90
61916;DHT22;47868;51.326;6.550;2023-02-04T12:49:57;12.20;99.90
61916;DHT22;47868;51.326;6.550;2023-02-04T12:52:23;12.20;99.90
61916;DHT22;47868;51.326;6.550;2023-02-04T12:54:48;12.20;99.90
61916;DHT22;47868;51.326;6.550;2023-02-04T12:57:14;12.20;99.90
61916;DHT22;47868;51.326;6.550;2023-02-04T12:59:44;12.10;99.90
61916;DHT22;47868;51.326;6.550;2023-02-04T13:02:10;12.20;99.90
61916;DHT22;47868;51.326;6.550;2023-02-04T13:04:36;12.20;99.90
61916;DHT22;47868;51.326;6.550;2023-02-04T13:07:02;12.30;99.90
61916;DHT22;47868;51.326;6.550;2023-02-04T13:09:28;12.50;99.90
61916;DHT22;47868;51.326;6.550;2023-02-04T13:11:53;12.60;99.90
61916;DHT22;47868;51.326;6.550;2023-02-04T13:14:19;12.80;99.90
61916;DHT22;47868;51.326;6.550;2023-02-04T13:16:47;13.00;99.90
61916;DHT22;47868;51.326;6.550;2023-02-04T13:19:13;13.20;99.90
61916;DHT22;47868;51.326;6.550;2023-02-04T13:21:38;14.10;99.90
61916;DHT22;47868;51.326;6.550;2023-02-04T13:24:04;13.20;99.90
61916;DHT22;47868;51.326;6.550;2023-02-04T13:26:30;13.30;99.90
61916;DHT22;47868;51.326;6.550;2023-02-04T13:28:55;13.50;99.90
61916;DHT22;47868;51.326;6.550;2023-02-04T13:31:21;13.40;99.90
61916;DHT22;47868;51.326;6.550;2023-02-04T13:33:46;13.30;99.90
61916;DHT22;47868;51.326;6.550;2023-02-04T13:36:12;13.20;99.90
61916;DHT22;47868;51.326;6.550;2023-02-04T13:38:37;13.10;99.90
61916;DHT22;47868;51.326;6.550;2023-02-04T13:41:03;13.20;99.90
61916;DHT22;47868;51.326;6.550;2023-02-04T13:43:29;13.20;99.90
61916;DHT22;47868;51.326;6.550;2023-02-04T13:45:54;13.00;99.90
61916;DHT22;47868;51.326;6.550;2023-02-04T13:48:22;13.00;99.90
61916;DHT22;47868;51.326;6.550;2023-02-04T13:50:48;12.90;99.90
61916;DHT22;47868;51.326;6.550;2023-02-04T13:53:15;12.90;99.90
61916;DHT22;47868;51.326;6.550;2023-02-04T13:55:41;12.80;99.90
61916;DHT22;47868;51.326;6.550;2023-02-04T13:58:07;12.70;99.90
61916;DHT22;47868;51.326;6.550;2023-02-04T14:00:33;12.80;99.90
61916;DHT22;47868;51.326;6.550;2023-02-04T14:02:58;12.80;99.90
61916;DHT22;47868;51.326;6.550;2023-02-04T14:05:24;12.90;99.90
61916;DHT22;47868;51.326;6.550;2023-02-04T14:07:50;13.00;99.90
61916;DHT22;47868;51.326;6.550;2023-02-04T14:10:18;13.10;99.90
61916;DHT22;47868;51.326;6.550;2023-02-04T14:12:47;13.10;99.90
61916;DHT22;47868;51.326;6.550;2023-02-04T14:15:12;13.10;99.90
61916;DHT22;47868;51.326;6.550;2023-02-04T14:17:38;13.10;99.90
61916;DHT22;47868;51.326;6.550;2023-02-04T14:20:04;13.10;99.90
61916;DHT22;47868;51.326;6.550;2023-02-04T14:22:30;13.10;99.90
61916;DHT22;47868;51.326;6.550;2023-02-04T14:24:56;12.90;99.90
61916;DHT22;47868;51.326;6.550;2023-02-04T14:27:22;12.80;99.90
61916;DHT22;47868;51.326;6.550;2023-02-04T14:29:48;12.70;99.90
61916;DHT22;47868;51.326;6.550;2023-02-04T14:32:13;12.40;99.90
61916;DHT22;47868;51.326;6.550;2023-02-04T14:34:39;12.30;99.90
61916;DHT22;47868;51.326;6.550;2023-02-04T14:39:31;12.10;99.90
61916;DHT22;47868;51.326;6.550;2023-02-04T14:41:56;11.90;99.90
61916;DHT22;47868;51.326;6.550;2023-02-04T14:44:22;11.90;99.90
61916;DHT22;47868;51.326;6.550;2023-02-04T14:46:47;11.80;99.90
61916;DHT22;47868;51.326;6.550;2023-02-04T14:49:16;11.80;99.90
61916;DHT22;47868;51.326;6.550;2023-02-04T14:51:42;11.70;99.90
61916;DHT22;47868;51.326;6.550;2023-02-04T14:54:08;11.70;99.90
61916;DHT22;47868;51.326;6.550;2023-02-04T14:56:34;11.80;99.90
61916;DHT22;47868;51.326;6.550;2023-02-04T14:58:59;11.90;99.90
61916;DHT22;47868;51.326;6.550;2023-02-04T15:01:25;11.90;99.90
61916;DHT22;47868;51.326;6.550;2023-02-04T15:03:52;11.90;99.90
61916;DHT22;47868;51.326;6.550;2023-02-04T15:06:17;11.90;99.90
61916;DHT22;47868;51.326;6.550;2023-02-04T15:08:43;11.90;99.90
61916;DHT22;47868;51.326;6.550;2023-02-04T15:11:09;12.00;99.90
61916;DHT22;47868;51.326;6.550;2023-02-04T15:13:35;12.10;99.90
61916;DHT22;47868;51.326;6.550;2023-02-04T15:16:14;12.00;99.90
61916;DHT22;47868;51.326;6.550;2023-02-04T15:18:40;11.90;99.90
61916;DHT22;47868;51.326;6.550;2023-02-04T15:21:05;11.80;99.90
61916;DHT22;47868;51.326;6.550;2023-02-04T15:23:31;11.70;99.90
61916;DHT22;47868;51.326;6.550;2023-02-04T15:25:57;11.50;99.90
61916;DHT22;47868;51.326;6.550;2023-02-04T15:28:23;11.50;99.90
61916;DHT22;47868;51.326;6.550;2023-02-04T15:30:48;11.40;99.90
61916;DHT22;47868;51.326;6.550;2023-02-04T15:33:14;11.30;99.90
61916;DHT22;47868;51.326;6.550;2023-02-04T15:35:41;11.30;99.90
61916;DHT22;47868;51.326;6.550;2023-02-04T15:38:08;11.20;99.90
61916;DHT22;47868;51.326;6.550;2023-02-04T15:40:34;11.10;99.90
61916;DHT22;47868;51.326;6.550;2023-02-04T15:42:59;11.00;99.90
61916;DHT22;47868;51.326;6.550;2023-02-04T15:45:25;11.00;99.90
61916;DHT22;47868;51.326;6.550;2023-02-04T15:47:51;10.90;99.90
61916;DHT22;47868;51.326;6.550;2023-02-04T15:50:16;10.90;99.90
61916;DHT22;47868;51.326;6.550;2023-02-04T15:52:42;10.80;99.90
61916;DHT22;47868;51.326;6.550;2023-02-04T15:55:08;10.70;99.90
61916;DHT22;47868;51.326;6.550;2023-02-04T15:57:33;10.60;99.90
61916;DHT22;47868;51.326;6.550;2023-02-04T15:59:59;10.60;99.90
61916;DHT22;47868;51.326;6.550;2023-02-04T16:02:24;10.60;99.90
61916;DHT22;47868;51.326;6.550;2023-02-04T16:04:50;10.60;99.90
61916;DHT22;47868;51.326;6.550;2023-02-04T16:07:16;10.60;99.90
61916;DHT22;47868;51.326;6.550;2023-02-04T16:09:42;10.70;99.90
61916;DHT22;47868;51.326;6.550;2023-02-04T16:12:08;10.70;99.90
61916;DHT22;47868;51.326;6.550;2023-02-04T16:14:33;10.70;99.90